Time;durP1;ratioP1;P1;durP2;ratioP2;P2;SDS_P1;SDS_P2;PMS_P1;PMS_P2;Temp;Humidity;BMP_temperature;BMP_pressure;BME280_temperature;BME280_humidity;BME280_pressure;Samples;Min_cycle;Max_cycle;Signal;HPM_P1;HPM_P2
2022/03/28 00:01:49;;;;;;;19.20;12.03;;;6.10;99.90;;;;;;5050552;28;20549;-71
2022/03/28 00:04:16;;;;;;;14.40;11.17;;;6.20;99.90;;;;;;5050133;28;20938;-71
2022/03/28 00:06:44;;;;;;;17.57;11.10;;;6.30;99.90;;;;;;5051168;28;20436;-70
2022/03/28 00:09:11;;;;;;;16.20;11.17;;;6.30;99.90;;;;;;5051203;28;20432;-70
2022/03/28 00:11:38;;;;;;;18.20;11.07;;;6.30;99.90;;;;;;5051256;28;20490;-73
2022/03/28 00:14:05;;;;;;;13.90;10.90;;;6.20;99.90;;;;;;5050052;28;20540;-70
2022/03/28 00:16:32;;;;;;;19.03;11.83;;;6.10;99.90;;;;;;5051043;28;21004;-73
2022/03/28 00:18:59;;;;;;;17.07;12.40;;;6.10;99.90;;;;;;5051375;28;20812;-70
2022/03/28 00:21:26;;;;;;;19.43;12.57;;;6.00;99.90;;;;;;5050958;28;20484;-72
2022/03/28 00:23:54;;;;;;;16.77;11.80;;;6.00;99.90;;;;;;5050775;28;20802;-70
2022/03/28 00:26:21;;;;;;;17.43;11.93;;;5.80;99.90;;;;;;5050372;28;20458;-70
2022/03/28 00:28:49;;;;;;;17.60;11.40;;;5.80;99.90;;;;;;5050832;28;20436;-70
2022/03/28 00:31:17;;;;;;;19.97;12.63;;;5.70;99.90;;;;;;5050966;28;20480;-71
2022/03/28 00:33:45;;;;;;;17.03;11.13;;;5.80;99.90;;;;;;5051463;28;20529;-73
2022/03/28 00:36:12;;;;;;;17.10;10.53;;;5.70;99.90;;;;;;5049793;28;20444;-71
2022/03/28 00:38:38;;;;;;;16.50;11.10;;;5.80;99.90;;;;;;5050873;28;20440;-71
2022/03/28 00:41:07;;;;;;;20.67;12.10;;;5.70;99.90;;;;;;5050986;28;20443;-71
2022/03/28 00:43:34;;;;;;;15.60;11.27;;;5.70;99.90;;;;;;5050564;28;20530;-71
2022/03/28 00:46:00;;;;;;;19.67;11.03;;;5.70;99.90;;;;;;5049651;28;20513;-72
2022/03/28 00:48:27;;;;;;;17.10;11.20;;;5.60;99.90;;;;;;5050132;28;20952;-71
2022/03/28 00:50:56;;;;;;;15.60;11.03;;;5.50;99.90;;;;;;5050473;28;20471;-71
2022/03/28 00:53:26;;;;;;;15.90;12.63;;;5.50;99.90;;;;;;5050366;28;20464;-71
2022/03/28 00:55:53;;;;;;;17.10;12.27;;;5.40;99.90;;;;;;5049220;28;20441;-72
2022/03/28 00:58:22;;;;;;;19.83;11.70;;;5.30;99.90;;;;;;5050437;28;20440;-71
2022/03/28 01:00:49;;;;;;;15.80;13.07;;;5.30;99.90;;;;;;5050281;28;20443;-70
2022/03/28 01:03:16;;;;;;;22.13;13.97;;;5.30;99.90;;;;;;5050232;28;20455;-71
2022/03/28 01:05:43;;;;;;;16.30;11.53;;;5.30;99.90;;;;;;5048737;28;20440;-72
2022/03/28 01:08:10;;;;;;;20.73;13.90;;;5.20;99.90;;;;;;5050024;28;20531;-71
2022/03/28 01:10:39;;;;;;;15.93;12.50;;;5.20;99.90;;;;;;5050233;28;20483;-71
2022/03/28 01:13:06;;;;;;;21.80;13.07;;;5.30;99.90;;;;;;5050133;28;20463;-71
2022/03/28 01:15:35;;;;;;;15.50;11.97;;;5.30;99.90;;;;;;5048848;28;20443;-71
2022/03/28 01:18:06;;;;;;;18.60;12.17;;;5.20;99.90;;;;;;5049924;28;20952;-71
2022/03/28 01:20:35;;;;;;;18.30;12.27;;;5.10;99.90;;;;;;5049774;28;20471;-71
2022/03/28 01:23:03;;;;;;;17.17;11.50;;;5.20;99.90;;;;;;5049886;28;20467;-71
2022/03/28 01:25:30;;;;;;;17.20;12.77;;;5.20;99.90;;;;;;5048855;28;20455;-70
2022/03/28 01:27:59;;;;;;;16.43;12.50;;;5.20;99.90;;;;;;5050193;28;21156;-71
2022/03/28 01:30:28;;;;;;;17.97;12.40;;;5.10;99.90;;;;;;5049813;28;20432;-71
2022/03/28 01:32:56;;;;;;;18.67;12.83;;;5.00;99.90;;;;;;5049977;28;20603;-74
2022/03/28 01:35:30;;;;;;;18.93;13.17;;;4.90;99.90;;;;;;5048706;28;20455;-70
2022/03/28 01:37:58;;;;;;;21.47;13.17;;;4.90;99.90;;;;;;5050256;28;20501;-72
2022/03/28 01:40:27;;;;;;;17.53;12.40;;;4.90;99.90;;;;;;5049882;28;20979;-72
2022/03/28 01:42:54;;;;;;;21.20;12.73;;;5.00;99.90;;;;;;5049892;28;20823;-71
2022/03/28 01:45:21;;;;;;;17.60;12.93;;;5.10;99.90;;;;;;5048917;28;20444;-70
2022/03/28 01:47:49;;;;;;;16.23;11.80;;;5.00;99.90;;;;;;5049673;28;20944;-71
2022/03/28 01:50:17;;;;;;;18.83;12.30;;;5.00;99.90;;;;;;5050030;28;20550;-70
2022/03/28 01:52:44;;;;;;;16.57;11.27;;;5.00;99.90;;;;;;5049943;28;20487;-70
2022/03/28 01:55:11;;;;;;;20.73;12.83;;;4.90;99.90;;;;;;5048881;28;20446;-70
2022/03/28 01:57:41;;;;;;;17.80;13.30;;;5.00;99.90;;;;;;5049976;28;20932;-71
2022/03/28 02:00:10;;;;;;;14.17;11.13;;;5.00;99.90;;;;;;5051909;28;20446;-70
2022/03/28 02:02:37;;;;;;;15.43;11.60;;;5.00;99.90;;;;;;5053391;28;20456;-71
2022/03/28 02:05:04;;;;;;;18.10;12.17;;;4.90;99.90;;;;;;5052426;28;20444;-71
2022/03/28 02:07:32;;;;;;;21.10;12.70;;;5.00;99.90;;;;;;5053612;28;20441;-71
2022/03/28 02:09:58;;;;;;;14.87;11.33;;;5.00;99.90;;;;;;5053737;28;20950;-72
2022/03/28 02:12:25;;;;;;;13.87;11.40;;;5.10;99.90;;;;;;5053379;28;20489;-72
2022/03/28 02:14:53;;;;;;;20.53;13.00;;;5.10;99.90;;;;;;5053059;28;20462;-72
2022/03/28 02:17:20;;;;;;;18.93;12.67;;;5.00;99.90;;;;;;5053731;28;20463;-71
2022/03/28 02:19:47;;;;;;;19.03;13.07;;;4.90;99.90;;;;;;5053466;28;20442;-73
2022/03/28 02:22:14;;;;;;;17.10;11.53;;;4.90;99.90;;;;;;5053098;28;20454;-72
2022/03/28 02:24:41;;;;;;;19.80;12.70;;;4.90;99.90;;;;;;5051913;28;20443;-71
2022/03/28 02:27:08;;;;;;;17.50;12.63;;;4.80;99.90;;;;;;5053147;28;20436;-74
2022/03/28 02:29:35;;;;;;;17.77;12.50;;;4.80;99.90;;;;;;5052847;28;20444;-71
2022/03/28 02:32:04;;;;;;;17.27;12.20;;;4.80;99.90;;;;;;5053071;28;20869;-72
2022/03/28 02:34:31;;;;;;;21.67;13.03;;;4.70;99.90;;;;;;5051896;28;20435;-71
2022/03/28 02:36:58;;;;;;;18.50;13.77;;;4.70;99.90;;;;;;5052859;28;20534;-71
2022/03/28 02:39:25;;;;;;;17.07;12.03;;;4.60;99.90;;;;;;5053046;28;21052;-71
2022/03/28 02:41:52;;;;;;;19.43;11.70;;;4.60;99.90;;;;;;5052670;28;20494;-72
2022/03/28 02:44:19;;;;;;;16.23;11.67;;;4.50;99.90;;;;;;5051845;28;20442;-72
2022/03/28 02:46:46;;;;;;;16.00;11.60;;;4.50;99.90;;;;;;5052783;28;20440;-72
2022/03/28 02:49:14;;;;;;;14.87;11.13;;;4.60;99.90;;;;;;5052585;28;20447;-72
2022/03/28 02:51:41;;;;;;;18.47;11.70;;;4.60;99.90;;;;;;5052693;28;20490;-72
2022/03/28 02:54:08;;;;;;;15.80;11.50;;;4.60;99.90;;;;;;5051611;28;20522;-71
2022/03/28 02:56:35;;;;;;;16.10;11.63;;;4.60;99.90;;;;;;5052464;28;20432;-72
2022/03/28 02:59:02;;;;;;;20.40;12.00;;;4.60;99.90;;;;;;5052663;28;20452;-72
2022/03/28 03:01:29;;;;;;;13.67;10.93;;;4.60;99.90;;;;;;5052548;28;20530;-71
2022/03/28 03:03:56;;;;;;;16.60;11.23;;;4.60;99.90;;;;;;5051980;28;20441;-71
2022/03/28 03:06:24;;;;;;;16.80;11.80;;;4.60;99.90;;;;;;5051728;28;20542;-72
2022/03/28 03:08:51;;;;;;;17.60;10.30;;;4.60;99.90;;;;;;5052309;28;20438;-71
2022/03/28 03:11:18;;;;;;;15.90;10.63;;;4.50;99.90;;;;;;5051404;28;20856;-71
2022/03/28 03:13:46;;;;;;;17.93;12.43;;;4.40;99.90;;;;;;5052394;28;20901;-72
2022/03/28 03:16:13;;;;;;;14.97;10.70;;;4.40;99.90;;;;;;5051265;28;20436;-71
2022/03/28 03:18:40;;;;;;;13.90;10.07;;;4.40;99.90;;;;;;5052132;28;20872;-72
2022/03/28 03:21:07;;;;;;;14.50;10.00;;;4.50;99.90;;;;;;5052108;28;20444;-71
2022/03/28 03:23:35;;;;;;;16.13;10.20;;;4.50;99.90;;;;;;5052211;28;20468;-71
2022/03/28 03:26:02;;;;;;;15.50;10.73;;;4.40;99.90;;;;;;5050708;28;20490;-71
2022/03/28 03:28:28;;;;;;;15.03;10.43;;;4.40;99.90;;;;;;5052023;28;20547;-72
2022/03/28 03:30:55;;;;;;;13.63;10.67;;;4.40;99.90;;;;;;5051917;28;20922;-72
2022/03/28 03:33:22;;;;;;;16.83;11.37;;;4.30;99.90;;;;;;5051726;28;20467;-72
2022/03/28 03:35:49;;;;;;;17.43;12.80;;;4.30;99.90;;;;;;5050795;28;20443;-72
2022/03/28 03:38:16;;;;;;;15.53;10.97;;;4.10;99.90;;;;;;5051713;28;20442;-72
2022/03/28 03:40:44;;;;;;;18.43;11.20;;;4.10;99.90;;;;;;5052003;28;20551;-72
2022/03/28 03:43:11;;;;;;;17.37;10.83;;;4.20;99.90;;;;;;5051667;28;20459;-72
2022/03/28 03:45:38;;;;;;;15.73;10.97;;;4.20;99.90;;;;;;5051056;28;20447;-71
2022/03/28 03:48:05;;;;;;;16.17;11.40;;;4.30;99.90;;;;;;5051887;28;20523;-72
2022/03/28 03:50:32;;;;;;;15.63;10.80;;;4.40;99.90;;;;;;5051785;28;20448;-71
2022/03/28 03:52:59;;;;;;;18.57;12.03;;;4.30;99.90;;;;;;5051334;28;20479;-71
2022/03/28 03:55:25;;;;;;;19.53;11.77;;;4.30;99.90;;;;;;5050580;28;20434;-73
2022/03/28 03:57:54;;;;;;;15.70;11.17;;;4.20;99.90;;;;;;5051736;28;20440;-72
2022/03/28 04:00:22;;;;;;;19.50;11.30;;;4.20;99.90;;;;;;5051351;28;20468;-71
2022/03/28 04:02:50;;;;;;;14.53;11.50;;;4.10;99.90;;;;;;5051334;28;20597;-71
2022/03/28 04:05:17;;;;;;;15.60;11.90;;;4.10;99.90;;;;;;5050560;28;20486;-73
2022/03/28 04:07:44;;;;;;;15.23;10.53;;;4.20;99.90;;;;;;5051193;28;20475;-72
2022/03/28 04:10:12;;;;;;;15.47;10.50;;;4.20;99.90;;;;;;5051178;28;20459;-71
2022/03/28 04:12:38;;;;;;;20.90;13.33;;;4.30;99.90;;;;;;5051065;28;20571;-72
2022/03/28 04:15:10;;;;;;;18.60;13.00;;;4.20;99.90;;;;;;5049921;28;20539;-72
2022/03/28 04:17:42;;;;;;;14.77;11.47;;;4.10;99.90;;;;;;5051119;28;20444;-72
2022/03/28 04:20:12;;;;;;;19.97;12.40;;;4.00;99.90;;;;;;5050862;28;20532;-72
2022/03/28 04:22:40;;;;;;;16.63;12.60;;;3.90;99.90;;;;;;5050282;28;20452;-72
2022/03/28 04:25:08;;;;;;;16.33;12.37;;;4.00;99.90;;;;;;5049704;28;20455;-72
2022/03/28 04:27:35;;;;;;;21.10;12.97;;;3.90;99.90;;;;;;5050833;28;20922;-73
2022/03/28 04:30:03;;;;;;;20.57;13.33;;;3.80;99.90;;;;;;5050804;28;20502;-73
2022/03/28 04:32:31;;;;;;;18.03;13.10;;;3.80;99.90;;;;;;5050753;28;20504;-71
2022/03/28 04:34:58;;;;;;;21.77;12.90;;;3.80;99.90;;;;;;5049531;28;20935;-72
2022/03/28 04:37:25;;;;;;;16.73;12.30;;;3.80;99.90;;;;;;5050794;28;20478;-72
2022/03/28 04:39:52;;;;;;;18.63;12.37;;;3.70;99.90;;;;;;5050349;28;20824;-71
2022/03/28 04:42:19;;;;;;;18.83;12.63;;;3.80;99.90;;;;;;5050412;28;20459;-69
2022/03/28 04:44:45;;;;;;;25.37;14.90;;;3.70;99.90;;;;;;5049000;28;20440;-71
2022/03/28 04:47:12;;;;;;;15.50;12.10;;;3.70;99.90;;;;;;5050491;28;20495;-69
2022/03/28 04:49:40;;;;;;;17.00;11.93;;;3.70;99.90;;;;;;5050495;28;20458;-70
2022/03/28 04:52:08;;;;;;;15.73;11.80;;;3.70;99.90;;;;;;5050177;28;20498;-72
2022/03/28 04:54:36;;;;;;;17.57;12.37;;;3.80;99.90;;;;;;5049138;28;21057;-72
2022/03/28 04:57:03;;;;;;;17.57;11.23;;;3.80;99.90;;;;;;5050199;28;20444;-71
2022/03/28 04:59:30;;;;;;;21.70;12.60;;;3.80;99.90;;;;;;5050236;28;20440;-72
2022/03/28 05:01:57;;;;;;;18.17;12.33;;;3.90;99.90;;;;;;5050573;28;20452;-71
2022/03/28 05:04:24;;;;;;;19.93;12.20;;;4.00;99.90;;;;;;5048911;28;20451;-71
2022/03/28 05:06:52;;;;;;;17.80;11.97;;;4.00;99.90;;;;;;5049218;28;21033;-70
2022/03/28 05:09:19;;;;;;;16.90;12.20;;;4.00;99.90;;;;;;5047001;28;20960;-70
2022/03/28 05:11:46;;;;;;;21.27;12.63;;;3.90;99.90;;;;;;5048530;28;20500;-70
2022/03/28 05:14:13;;;;;;;20.20;12.43;;;3.90;99.90;;;;;;5048519;28;20510;-70
2022/03/28 05:16:39;;;;;;;17.00;11.90;;;3.90;99.90;;;;;;5049547;28;20960;-72
2022/03/28 05:19:06;;;;;;;18.60;13.10;;;3.90;99.90;;;;;;5050146;28;20436;-70
2022/03/28 05:21:34;;;;;;;20.70;12.83;;;3.90;99.90;;;;;;5048634;28;20467;-70
2022/03/28 05:24:02;;;;;;;20.60;13.83;;;3.90;99.90;;;;;;5049307;28;20440;-70
2022/03/28 05:26:29;;;;;;;16.70;12.30;;;3.80;99.90;;;;;;5049166;28;20456;-70
2022/03/28 05:28:55;;;;;;;20.90;11.90;;;3.90;99.90;;;;;;5049150;28;20968;-71
2022/03/28 05:31:23;;;;;;;20.03;12.43;;;3.90;99.90;;;;;;5049454;28;20444;-71
2022/03/28 05:33:49;;;;;;;23.60;13.80;;;3.80;99.90;;;;;;5051296;28;20476;-71
2022/03/28 05:36:17;;;;;;;18.53;12.33;;;3.80;99.90;;;;;;5052491;28;20937;-71
2022/03/28 05:38:44;;;;;;;18.00;12.33;;;3.90;99.90;;;;;;5053667;28;20436;-70
2022/03/28 05:41:12;;;;;;;31.13;12.23;;;3.80;99.90;;;;;;5050317;28;20448;-71
2022/03/28 05:43:39;;;;;;;23.30;13.27;;;3.90;99.90;;;;;;5049078;28;20447;-70
2022/03/28 05:46:06;;;;;;;17.20;12.40;;;4.00;99.90;;;;;;5051474;28;20440;-69
2022/03/28 05:48:33;;;;;;;20.50;12.60;;;4.00;99.90;;;;;;5052531;28;20440;-68
2022/03/28 05:51:01;;;;;;;16.93;12.37;;;4.00;99.90;;;;;;5052354;28;20440;-70
2022/03/28 05:53:27;;;;;;;19.00;11.67;;;4.00;99.90;;;;;;5052182;28;20519;-69
2022/03/28 05:55:55;;;;;;;17.07;12.53;;;4.10;99.90;;;;;;5050752;28;20444;-70
2022/03/28 05:58:24;;;;;;;20.53;12.10;;;4.30;99.90;;;;;;5049915;28;20546;-72
2022/03/28 06:00:51;;;;;;;18.20;12.50;;;4.40;99.90;;;;;;5051174;28;20496;-73
2022/03/28 06:03:18;;;;;;;18.40;11.63;;;4.40;99.90;;;;;;5051546;28;20456;-71
2022/03/28 06:05:45;;;;;;;19.33;12.03;;;4.60;99.90;;;;;;5051082;28;21002;-71
2022/03/28 06:08:12;;;;;;;20.77;12.03;;;4.70;99.90;;;;;;5051974;28;20442;-71
2022/03/28 06:10:38;;;;;;;17.37;12.40;;;4.70;99.90;;;;;;5051236;28;20474;-70
2022/03/28 06:13:06;;;;;;;17.23;12.43;;;4.70;99.90;;;;;;5051151;28;20839;-72
2022/03/28 06:15:36;;;;;;;19.50;12.30;;;4.90;99.90;;;;;;5049797;28;21013;-71
2022/03/28 06:18:04;;;;;;;20.60;12.77;;;4.90;99.90;;;;;;5051246;28;20841;-71
2022/03/28 06:20:31;;;;;;;18.87;13.50;;;5.00;99.90;;;;;;5051718;28;20484;-71
2022/03/28 06:22:58;;;;;;;22.40;13.20;;;5.10;99.90;;;;;;5051381;28;20817;-71
2022/03/28 06:25:25;;;;;;;19.93;13.60;;;5.20;99.90;;;;;;5050452;28;20956;-71
2022/03/28 06:27:53;;;;;;;21.00;13.80;;;5.30;99.90;;;;;;5051653;28;20526;-71
2022/03/28 06:30:20;;;;;;;23.63;12.17;;;5.40;99.90;;;;;;5051713;28;20434;-71
2022/03/28 06:32:48;;;;;;;21.07;13.47;;;5.50;99.90;;;;;;5051486;28;20565;-71
2022/03/28 06:35:15;;;;;;;22.73;13.10;;;5.60;99.90;;;;;;5050218;28;20438;-71
2022/03/28 06:37:42;;;;;;;18.10;12.10;;;5.80;99.90;;;;;;5051441;28;20538;-71
2022/03/28 06:40:10;;;;;;;18.70;13.30;;;5.90;99.90;;;;;;5051239;28;20464;-72
2022/03/28 06:42:37;;;;;;;17.30;11.97;;;6.00;99.90;;;;;;5051229;28;20486;-71
2022/03/28 06:45:04;;;;;;;21.93;13.50;;;6.10;99.90;;;;;;5049478;28;20460;-70
2022/03/28 06:47:31;;;;;;;18.90;13.03;;;6.20;99.90;;;;;;5052287;28;20452;-70
2022/03/28 06:49:59;;;;;;;16.97;13.40;;;6.30;99.90;;;;;;5051863;28;21025;-72
2022/03/28 06:52:26;;;;;;;21.17;12.20;;;6.40;99.90;;;;;;5051939;28;20482;-71
2022/03/28 06:54:53;;;;;;;28.57;13.50;;;6.50;99.90;;;;;;5051016;28;20506;-71
2022/03/28 06:57:20;;;;;;;16.33;12.00;;;6.60;99.90;;;;;;5052047;28;20543;-72
2022/03/28 06:59:47;;;;;;;21.90;12.63;;;6.80;99.90;;;;;;5051959;28;21033;-71
2022/03/28 07:02:14;;;;;;;18.15;13.63;;;7.00;99.90;;;;;;5052081;28;20573;-73
2022/03/28 07:04:41;;;;;;;18.67;13.43;;;7.10;99.90;;;;;;5050694;28;20739;-71
2022/03/28 07:07:09;;;;;;;24.27;14.97;;;7.20;99.90;;;;;;5051881;28;20434;-72
2022/03/28 07:09:37;;;;;;;31.47;13.37;;;7.30;99.90;;;;;;5051807;28;20444;-73
2022/03/28 07:12:05;;;;;;;19.97;12.93;;;7.50;99.90;;;;;;5051981;28;20525;-71
2022/03/28 07:14:33;;;;;;;21.13;14.00;;;7.60;99.90;;;;;;5050646;28;20507;-73
2022/03/28 07:17:00;;;;;;;19.23;13.90;;;7.80;99.90;;;;;;5051734;28;20440;-71
2022/03/28 07:19:27;;;;;;;20.40;14.20;;;7.90;99.90;;;;;;5051714;28;20973;-71
2022/03/28 07:21:54;;;;;;;21.73;13.07;;;8.10;99.90;;;;;;5051593;28;21002;-71
2022/03/28 07:24:22;;;;;;;23.23;14.10;;;8.30;99.90;;;;;;5050720;28;20535;-72
2022/03/28 07:26:49;;;;;;;19.60;13.57;;;8.40;99.90;;;;;;5051768;28;20551;-72
2022/03/28 07:29:17;;;;;;;21.07;15.27;;;8.50;99.90;;;;;;5052078;28;20456;-71
2022/03/28 07:31:44;;;;;;;24.77;13.73;;;8.60;99.90;;;;;;5051504;28;20471;-71
2022/03/28 07:36:56;;;;;;;19.90;13.97;;;9.00;99.90;;;;;;5051533;28;20416;-71
2022/03/28 07:39:24;;;;;;;19.13;13.53;;;9.20;99.90;;;;;;5051337;28;20874;-71
2022/03/28 07:41:52;;;;;;;17.97;12.20;;;9.30;99.90;;;;;;5051056;28;21025;-72
2022/03/28 07:44:20;;;;;;;17.27;13.67;;;9.50;99.90;;;;;;5050496;28;20452;-72
2022/03/28 07:46:47;;;;;;;18.43;13.27;;;9.50;99.90;;;;;;5051454;28;20994;-70
2022/03/28 07:49:16;;;;;;;17.13;11.90;;;9.70;99.90;;;;;;5050999;28;20479;-70
2022/03/28 07:51:43;;;;;;;18.30;12.53;;;9.80;99.90;;;;;;5050969;28;20499;-70
2022/03/28 07:54:10;;;;;;;20.30;12.93;;;9.90;99.90;;;;;;5050153;28;21080;-72
2022/03/28 07:56:39;;;;;;;17.60;12.60;;;10.00;99.90;;;;;;5050634;28;20452;-70
2022/03/28 07:59:06;;;;;;;16.77;14.03;;;10.10;99.60;;;;;;5051079;28;20448;-72
2022/03/28 08:01:33;;;;;;;20.48;14.13;;;10.30;99.90;;;;;;5050334;28;20470;-70
2022/03/28 08:04:00;;;;;;;18.40;12.47;;;10.40;99.10;;;;;;5050862;28;20197;-70
2022/03/28 08:06:27;;;;;;;19.80;12.13;;;10.50;99.30;;;;;;5049864;28;20540;-71
2022/03/28 08:08:53;;;;;;;18.10;12.77;;;10.70;98.50;;;;;;5050586;28;20443;-70
2022/03/28 08:11:21;;;;;;;15.30;11.20;;;10.80;97.70;;;;;;5050401;28;20485;-70
2022/03/28 08:13:50;;;;;;;19.47;11.40;;;10.90;98.20;;;;;;5050518;28;20483;-70
2022/03/28 08:16:16;;;;;;;16.47;11.83;;;10.90;97.80;;;;;;5049478;28;20451;-70
2022/03/28 08:18:43;;;;;;;16.60;12.43;;;11.10;98.40;;;;;;5050569;28;20968;-70
2022/03/28 08:21:10;;;;;;;19.30;12.87;;;11.20;97.70;;;;;;5050445;28;20798;-71
2022/03/28 08:23:37;;;;;;;21.13;13.93;;;11.40;96.80;;;;;;5050216;28;20535;-70
2022/03/28 08:26:05;;;;;;;19.37;12.53;;;11.60;96.50;;;;;;5049087;28;20467;-71
2022/03/28 08:28:32;;;;;;;21.33;13.97;;;11.70;96.00;;;;;;5050369;28;20878;-71
2022/03/28 08:31:00;;;;;;;18.83;12.50;;;11.90;95.60;;;;;;5050109;28;21011;-71
2022/03/28 08:33:27;;;;;;;17.07;12.83;;;12.00;95.80;;;;;;5050139;28;20484;-70
2022/03/28 08:35:54;;;;;;;19.87;13.30;;;12.20;95.40;;;;;;5049089;28;20779;-71
2022/03/28 08:38:22;;;;;;;22.73;13.93;;;12.30;95.50;;;;;;5050231;28;20919;-71
2022/03/28 08:40:49;;;;;;;18.17;12.50;;;12.40;95.20;;;;;;5050367;28;20816;-70
2022/03/28 08:43:18;;;;;;;19.43;12.90;;;12.60;94.80;;;;;;5050028;28;20448;-70
2022/03/28 08:45:46;;;;;;;19.17;13.43;;;12.80;93.80;;;;;;5048902;28;20870;-71
2022/03/28 08:48:14;;;;;;;22.50;13.50;;;12.90;94.40;;;;;;5050228;28;20464;-71
2022/03/28 08:50:43;;;;;;;23.50;15.50;;;13.10;94.30;;;;;;5049973;28;20828;-71
2022/03/28 08:53:10;;;;;;;22.90;13.83;;;13.30;92.90;;;;;;5049732;28;20480;-71
2022/03/28 08:55:40;;;;;;;19.47;13.90;;;13.40;92.30;;;;;;5048915;28;20483;-71
2022/03/28 08:58:07;;;;;;;21.27;15.77;;;13.50;91.40;;;;;;5049944;28;20855;-71
2022/03/28 09:00:34;;;;;;;22.47;15.40;;;13.70;92.20;;;;;;5050343;28;20502;-71
2022/03/28 09:03:00;;;;;;;21.37;14.57;;;13.80;91.70;;;;;;5050055;28;20472;-69
2022/03/28 09:05:34;;;;;;;22.03;14.50;;;14.00;91.50;;;;;;5048910;28;20560;-73
2022/03/28 09:08:02;;;;;;;28.00;14.10;;;14.20;90.70;;;;;;5049362;28;20956;-70
2022/03/28 09:10:32;;;;;;;20.50;14.27;;;14.40;91.40;;;;;;5050092;28;20460;-70
2022/03/28 09:13:04;;;;;;;24.60;14.87;;;14.60;89.80;;;;;;5049840;28;20456;-70
2022/03/28 09:15:47;;;;;;;24.50;15.20;;;14.80;90.00;;;;;;5048981;28;20533;-70
2022/03/28 09:18:25;;;;;;;30.33;16.70;;;15.20;87.10;;;;;;5047608;28;20470;-72
2022/03/28 09:20:55;;;;;;;47.97;17.77;;;15.60;83.80;;;;;;5050129;28;20436;-72
2022/03/28 09:23:37;;;;;;;20.90;14.47;;;16.00;86.70;;;;;;5050260;28;20475;-72
2022/03/28 09:26:10;;;;;;;28.30;15.60;;;16.50;81.00;;;;;;5048940;28;20444;-74
2022/03/28 09:28:48;;;;;;;20.83;15.40;;;17.00;78.30;;;;;;5049996;28;20973;-71
2022/03/28 09:31:24;;;;;;;20.57;15.97;;;17.60;76.40;;;;;;5049909;28;20518;-71
2022/03/28 09:34:13;;;;;;;20.33;15.30;;;18.20;74.20;;;;;;5049648;28;20482;-71
2022/03/28 09:36:44;;;;;;;22.80;15.07;;;18.50;70.90;;;;;;5041068;28;20487;-71
2022/03/28 09:39:16;;;;;;;22.23;14.40;;;19.00;69.70;;;;;;5049430;28;20937;-70
2022/03/28 09:41:44;;;;;;;24.40;16.90;;;19.50;68.30;;;;;;5049526;28;20459;-72
2022/03/28 09:44:11;;;;;;;19.53;14.67;;;20.00;64.90;;;;;;5048919;28;20498;-71
2022/03/28 09:46:39;;;;;;;20.50;16.30;;;20.00;64.50;;;;;;5049018;28;20494;-70
2022/03/28 09:49:08;;;;;;;22.80;16.03;;;20.20;60.00;;;;;;5049358;28;20819;-70
2022/03/28 09:51:36;;;;;;;21.80;18.10;;;20.40;58.60;;;;;;5049656;28;20530;-71
2022/03/28 09:54:18;;;;;;;25.50;17.50;;;20.70;57.90;;;;;;5048545;28;20479;-71
2022/03/28 09:57:05;;;;;;;21.27;16.97;;;20.60;58.30;;;;;;5049098;28;20723;-71
2022/03/28 09:59:38;;;;;;;22.07;15.50;;;20.70;57.00;;;;;;5049246;28;20996;-71
2022/03/28 10:02:18;;;;;;;18.03;14.90;;;20.90;56.20;;;;;;5049396;28;20932;-72
2022/03/28 10:04:47;;;;;;;24.33;18.03;;;21.30;57.10;;;;;;5048134;28;20934;-71
2022/03/28 10:07:14;;;;;;;20.30;16.40;;;21.50;55.00;;;;;;5049629;28;20908;-70
2022/03/28 10:09:42;;;;;;;19.00;16.47;;;21.10;55.90;;;;;;5050539;28;20454;-71
2022/03/28 10:12:09;;;;;;;22.37;16.20;;;21.30;55.00;;;;;;5049475;28;20526;-71
2022/03/28 10:14:36;;;;;;;19.67;15.60;;;21.50;54.00;;;;;;5048049;28;21018;-72
2022/03/28 10:17:06;;;;;;;19.47;15.83;;;21.60;54.60;;;;;;5049114;28;20444;-72
2022/03/28 10:19:36;;;;;;;18.50;14.80;;;21.90;53.80;;;;;;5049253;28;20503;-71
2022/03/28 10:22:06;;;;;;;22.43;17.23;;;22.20;54.80;;;;;;5052456;28;20498;-72
2022/03/28 10:24:35;;;;;;;21.73;15.63;;;22.40;52.20;;;;;;5051761;28;20471;-70
2022/03/28 10:27:05;;;;;;;19.33;16.30;;;22.20;51.20;;;;;;5053033;28;20505;-71
2022/03/28 10:29:37;;;;;;;23.80;16.10;;;21.90;53.60;;;;;;5052780;28;20519;-71
2022/03/28 10:32:08;;;;;;;21.67;17.13;;;21.70;51.60;;;;;;5052450;28;20884;-71
2022/03/28 10:34:48;;;;;;;21.83;16.80;;;21.90;51.40;;;;;;5051684;28;20565;-71
2022/03/28 10:37:32;;;;;;;23.43;16.20;;;22.00;52.10;;;;;;5052559;28;20474;-70
2022/03/28 10:40:29;;;;;;;20.17;16.27;;;22.50;52.70;;;;;;5052512;28;20468;-70
2022/03/28 10:43:06;;;;;;;18.50;15.37;;;23.20;51.90;;;;;;5052141;28;20830;-73
2022/03/28 10:45:35;;;;;;;19.93;15.27;;;23.60;51.40;;;;;;5051008;28;20440;-70
2022/03/28 10:48:03;;;;;;;20.47;15.13;;;24.20;50.30;;;;;;5052052;28;20533;-72
2022/03/28 10:50:32;;;;;;;20.67;16.60;;;24.90;50.50;;;;;;5052227;28;20444;-71
2022/03/28 10:53:11;;;;;;;19.60;16.50;;;25.00;47.50;;;;;;5051975;28;21027;-71
2022/03/28 10:55:42;;;;;;;18.63;16.27;;;25.00;48.60;;;;;;5050931;28;21047;-70
2022/03/28 10:58:22;;;;;;;20.70;17.10;;;24.70;47.30;;;;;;5052417;28;20448;-70
2022/03/28 11:01:17;;;;;;;20.63;17.23;;;24.90;48.30;;;;;;5052457;28;20472;-71
2022/03/28 11:03:47;;;;;;;22.57;15.70;;;25.10;45.90;;;;;;5052780;28;20489;-73
2022/03/28 11:06:15;;;;;;;21.53;16.17;;;25.40;45.80;;;;;;5050467;28;20534;-70
2022/03/28 11:08:45;;;;;;;20.47;16.43;;;25.30;45.50;;;;;;5051827;28;20547;-71
2022/03/28 11:11:20;;;;;;;20.37;16.10;;;24.80;44.50;;;;;;5051867;28;20447;-72
2022/03/28 11:14:06;;;;;;;28.03;17.60;;;24.30;45.00;;;;;;5052086;28;20507;-72
2022/03/28 11:16:44;;;;;;;20.73;15.60;;;24.20;46.20;;;;;;5051129;28;20791;-71
2022/03/28 11:19:27;;;;;;;24.03;16.90;;;23.90;46.40;;;;;;5051731;28;20491;-70
2022/03/28 11:22:08;;;;;;;19.93;16.53;;;23.30;46.80;;;;;;5052459;28;20941;-70
2022/03/28 11:24:51;;;;;;;20.20;14.63;;;23.30;47.70;;;;;;5051526;28;20441;-71
2022/03/28 11:27:19;;;;;;;21.20;17.67;;;24.10;48.10;;;;;;5051599;28;20492;-69
2022/03/28 11:29:49;;;;;;;18.50;15.93;;;24.70;45.60;;;;;;5051588;28;20538;-71
2022/03/28 11:32:18;;;;;;;23.60;18.60;;;25.10;45.30;;;;;;5051033;28;20480;-73
2022/03/28 11:34:53;;;;;;;22.93;17.37;;;25.40;45.50;;;;;;5050120;28;20566;-70
2022/03/28 11:37:23;;;;;;;21.83;16.10;;;25.70;44.90;;;;;;5051331;28;20505;-72
2022/03/28 11:39:55;;;;;;;23.30;16.83;;;25.30;44.40;;;;;;5051364;28;20752;-71
2022/03/28 11:42:23;;;;;;;19.80;15.63;;;25.10;45.20;;;;;;5050902;28;21145;-70
2022/03/28 11:44:52;;;;;;;19.07;16.73;;;25.60;46.50;;;;;;5050044;28;20468;-71
2022/03/28 11:47:19;;;;;;;20.47;16.37;;;26.10;45.10;;;;;;5050856;28;21033;-71
2022/03/28 11:49:54;;;;;;;19.60;15.93;;;26.80;44.80;;;;;;5050895;28;21016;-71
2022/03/28 11:52:22;;;;;;;20.13;16.53;;;26.90;44.20;;;;;;5051009;28;20491;-71
2022/03/28 11:54:49;;;;;;;20.97;16.40;;;26.20;43.50;;;;;;5049712;28;20582;-71
2022/03/28 12:00:18;;;;;;;21.53;16.27;;;25.70;46.90;;;;;;5050722;28;20432;-70
2022/03/28 12:02:52;;;;;;;21.80;15.77;;;26.50;45.70;;;;;;5050431;28;20995;-72
2022/03/28 12:05:28;;;;;;;25.17;17.83;;;26.10;44.40;;;;;;5049422;28;20441;-72
2022/03/28 12:07:55;;;;;;;21.70;16.40;;;25.50;44.30;;;;;;5050915;28;20439;-71
2022/03/28 12:10:28;;;;;;;28.63;17.73;;;25.00;45.20;;;;;;5051027;28;20859;-71
2022/03/28 12:12:56;;;;;;;22.27;17.20;;;25.40;45.70;;;;;;5050506;28;20844;-72
2022/03/28 12:15:30;;;;;;;21.60;17.20;;;25.20;45.50;;;;;;5049490;28;20484;-71
2022/03/28 12:17:59;;;;;;;24.10;17.20;;;25.30;45.40;;;;;;5051069;28;20835;-72
2022/03/28 12:20:28;;;;;;;24.10;15.70;;;25.30;45.60;;;;;;5050572;28;20436;-75
2022/03/28 12:22:55;;;;;;;21.77;16.43;;;25.50;46.10;;;;;;5050272;28;21033;-72
2022/03/28 12:25:28;;;;;;;19.83;15.47;;;25.30;44.80;;;;;;5049102;28;20458;-71
2022/03/28 12:27:57;;;;;;;19.73;15.50;;;25.60;45.70;;;;;;5046097;28;20812;-72
2022/03/28 12:30:34;;;;;;;23.50;15.53;;;26.50;44.50;;;;;;5050090;28;20436;-73
2022/03/28 12:33:09;;;;;;;20.80;15.10;;;27.40;43.60;;;;;;5049727;28;20485;-74
2022/03/28 12:35:39;;;;;;;18.53;16.17;;;28.00;42.10;;;;;;5048609;28;20471;-72
2022/03/28 12:38:07;;;;;;;19.50;16.20;;;27.80;43.00;;;;;;5050209;28;20529;-72
2022/03/28 12:40:35;;;;;;;16.03;13.33;;;28.60;45.00;;;;;;5050207;28;20479;-72
2022/03/28 12:43:04;;;;;;;26.23;14.87;;;29.40;41.00;;;;;;5049636;28;20469;-71
2022/03/28 12:45:33;;;;;;;23.37;17.00;;;28.80;40.10;;;;;;5049583;28;20448;-73
2022/03/28 12:48:03;;;;;;;24.10;15.43;;;28.00;41.40;;;;;;5050339;28;20432;-71